Time;durP1;ratioP1;P1;durP2;ratioP2;P2;SDS_P1;SDS_P2;PMS_P1;PMS_P2;Temp;Humidity;BMP_temperature;BMP_pressure;BME280_temperature;BME280_humidity;BME280_pressure;Samples;Min_cycle;Max_cycle;Signal;HPM_P1;HPM_P2
2022/05/14 00:02:12;;;;;;;6.77;3.80;;;10.30;1.00;;;;;;5093749;28;20598;-83
2022/05/14 00:04:40;;;;;;;6.97;3.90;;;10.30;1.00;;;;;;5094056;28;20204;-83
2022/05/14 00:07:06;;;;;;;4.97;4.40;;;10.30;1.00;;;;;;5094198;28;20204;-83
2022/05/14 00:09:33;;;;;;;4.90;3.77;;;10.30;1.00;;;;;;5094680;28;20244;-84
2022/05/14 00:14:44;;;;;;;8.13;4.47;;;10.20;1.00;;;;;;5093698;28;20690;-84
2022/05/14 00:17:13;;;;;;;5.83;3.97;;;10.20;1.00;;;;;;5093802;28;20275;-83
2022/05/14 00:19:39;;;;;;;6.00;4.23;;;10.20;1.00;;;;;;5093808;28;20225;-83
2022/05/14 00:22:06;;;;;;;4.83;3.93;;;10.30;13.60;;;;;;5093985;28;20196;-83
2022/05/14 00:24:33;;;;;;;5.60;4.13;;;10.40;66.30;;;;;;5093967;28;20206;-83
2022/05/14 00:27:00;;;;;;;5.70;4.63;;;10.40;83.60;;;;;;5108991;28;20603;-82
2022/05/14 00:29:27;;;;;;;6.67;4.47;;;10.50;98.20;;;;;;5094460;28;20203;-83
2022/05/14 00:31:54;;;;;;;6.63;4.17;;;10.60;99.90;;;;;;5093194;28;20658;-83
2022/05/14 00:34:22;;;;;;;6.87;4.90;;;10.60;99.40;;;;;;5093260;28;20308;-83
2022/05/14 00:36:49;;;;;;;7.07;4.00;;;10.70;99.90;;;;;;5093445;28;20226;-82
2022/05/14 00:39:16;;;;;;;6.57;3.90;;;10.70;99.90;;;;;;5093382;28;20192;-83
2022/05/14 00:41:48;;;;;;;6.13;4.20;;;10.70;99.90;;;;;;5093053;28;20662;-83
2022/05/14 00:44:15;;;;;;;6.53;4.17;;;10.90;99.90;;;;;;5093343;28;20270;-83
2022/05/14 00:46:48;;;;;;;8.00;4.07;;;10.90;99.90;;;;;;5093192;28;20227;-83
2022/05/14 00:49:19;;;;;;;4.90;4.03;;;11.00;99.90;;;;;;5093317;28;20267;-83
2022/05/14 00:51:48;;;;;;;5.87;3.73;;;11.00;99.90;;;;;;5092746;28;20187;-82
2022/05/14 00:54:17;;;;;;;5.67;3.83;;;11.00;99.90;;;;;;5095073;28;20277;-83
2022/05/14 00:56:48;;;;;;;8.63;4.63;;;11.10;99.90;;;;;;5112419;28;20236;-84
2022/05/14 00:59:18;;;;;;;8.43;4.40;;;11.20;99.90;;;;;;5112464;28;20189;-82
2022/05/14 01:01:45;;;;;;;5.37;3.73;;;11.20;99.90;;;;;;5113515;28;20190;-82
2022/05/14 01:04:14;;;;;;;5.70;3.73;;;11.20;94.60;;;;;;5113445;28;20227;-83
2022/05/14 01:06:47;;;;;;;6.83;4.10;;;11.30;88.50;;;;;;5104602;28;20191;-82
2022/05/14 01:09:16;;;;;;;5.93;3.90;;;11.30;73.60;;;;;;5093050;28;20184;-82
2022/05/14 01:11:43;;;;;;;5.27;3.77;;;11.30;28.80;;;;;;5092642;28;20665;-83
2022/05/14 01:14:10;;;;;;;5.37;3.67;;;11.30;1.00;;;;;;5092442;28;20757;-83
2022/05/14 01:16:37;;;;;;;7.27;3.93;;;11.30;1.00;;;;;;5092938;28;20187;-83
2022/05/14 01:19:05;;;;;;;9.07;4.30;;;11.20;1.00;;;;;;5093124;28;20282;-83
2022/05/14 01:21:40;;;;;;;5.97;4.00;;;11.10;1.00;;;;;;5093247;28;20223;-84
2022/05/14 01:27:00;;;;;;;6.13;4.33;;;11.00;1.00;;;;;;5092543;28;20247;-83
2022/05/14 01:29:27;;;;;;;5.27;4.40;;;10.90;1.00;;;;;;5110419;28;20275;-83
2022/05/14 01:31:55;;;;;;;7.83;5.07;;;10.80;1.00;;;;;;5112959;28;20226;-84
2022/05/14 01:34:25;;;;;;;6.27;4.40;;;10.70;1.00;;;;;;5112814;28;20221;-84
2022/05/14 01:36:52;;;;;;;7.90;4.37;;;10.70;1.00;;;;;;5113094;28;20222;-84
2022/05/14 01:39:20;;;;;;;7.20;4.97;;;10.60;1.00;;;;;;5112971;28;20199;-84
2022/05/14 01:41:47;;;;;;;7.40;4.70;;;10.60;1.00;;;;;;5112627;28;20632;-84
2022/05/14 01:44:16;;;;;;;7.17;4.70;;;10.50;1.00;;;;;;5112849;28;20222;-83
2022/05/14 01:46:42;;;;;;;7.30;4.60;;;10.50;32.50;;;;;;5112806;28;20275;-84
2022/05/14 01:49:10;;;;;;;6.63;4.77;;;10.40;59.00;;;;;;5112558;28;20294;-83
2022/05/14 01:51:37;;;;;;;8.10;5.00;;;10.40;99.90;;;;;;5112598;28;20668;-84
2022/05/14 01:54:05;;;;;;;10.87;4.93;;;10.40;99.90;;;;;;5110982;28;20254;-83
2022/05/14 01:56:32;;;;;;;6.53;4.63;;;10.50;99.90;;;;;;5113028;28;20626;-84
2022/05/14 01:58:59;;;;;;;9.70;4.80;;;10.50;99.90;;;;;;5112838;28;20198;-82
2022/05/14 02:01:29;;;;;;;7.93;5.00;;;10.50;99.90;;;;;;5112537;28;20280;-83
2022/05/14 02:03:59;;;;;;;4.83;4.10;;;10.50;99.90;;;;;;5116820;28;20282;-82
2022/05/14 02:06:27;;;;;;;7.70;4.30;;;10.50;99.90;;;;;;5116421;28;20623;-83
2022/05/14 02:08:55;;;;;;;7.13;4.63;;;10.50;99.90;;;;;;5116732;28;20279;-82
2022/05/14 02:11:22;;;;;;;8.57;4.97;;;10.50;99.90;;;;;;5116653;28;20199;-82
2022/05/14 02:13:50;;;;;;;10.87;5.20;;;10.50;99.90;;;;;;5116503;28;20219;-83
2022/05/14 02:16:18;;;;;;;6.43;4.80;;;10.60;99.90;;;;;;5116651;28;20223;-83
2022/05/14 02:18:46;;;;;;;7.30;5.20;;;10.60;99.90;;;;;;5116349;28;20692;-83
2022/05/14 02:21:14;;;;;;;10.87;5.17;;;10.60;99.90;;;;;;5115779;28;20190;-82
2022/05/14 02:23:42;;;;;;;7.73;5.30;;;10.60;99.90;;;;;;5116268;28;20275;-82
2022/05/14 02:26:12;;;;;;;6.60;5.33;;;10.60;99.90;;;;;;5116373;28;20197;-81
2022/05/14 02:28:40;;;;;;;7.33;5.20;;;10.60;99.90;;;;;;5113012;28;20253;-82
2022/05/14 02:31:07;;;;;;;7.00;5.07;;;10.60;99.90;;;;;;5116036;28;20230;-81
2022/05/14 02:33:35;;;;;;;7.27;4.80;;;10.60;99.90;;;;;;5116583;28;20275;-82
2022/05/14 02:36:04;;;;;;;5.77;4.80;;;10.60;99.90;;;;;;5116474;28;20223;-81
2022/05/14 02:38:32;;;;;;;8.10;5.00;;;10.60;99.90;;;;;;5116259;28;20196;-81
2022/05/14 02:40:59;;;;;;;6.80;5.07;;;10.60;99.90;;;;;;5115773;28;20283;-83
2022/05/14 02:43:26;;;;;;;8.63;5.20;;;10.70;99.90;;;;;;5116025;28;20200;-81
2022/05/14 02:45:53;;;;;;;6.37;4.60;;;10.70;99.90;;;;;;5115983;28;20197;-82
2022/05/14 02:48:20;;;;;;;10.03;4.93;;;10.70;99.90;;;;;;5115934;28;20304;-81
2022/05/14 02:50:47;;;;;;;6.30;4.83;;;10.70;99.90;;;;;;5103051;28;20184;-82
2022/05/14 02:53:16;;;;;;;8.53;5.17;;;10.80;99.90;;;;;;5095357;28;20201;-82
2022/05/14 02:55:42;;;;;;;10.87;5.03;;;10.80;99.90;;;;;;5095402;28;20651;-81
2022/05/14 02:58:09;;;;;;;7.50;5.07;;;10.80;99.90;;;;;;5095468;28;20611;-82
2022/05/14 03:00:36;;;;;;;7.97;4.60;;;10.80;99.90;;;;;;5095590;28;20229;-82
2022/05/14 03:03:03;;;;;;;16.10;5.43;;;10.80;99.90;;;;;;5095242;28;20195;-82
2022/05/14 03:05:30;;;;;;;7.93;5.03;;;10.90;99.90;;;;;;5095286;28;20250;-81
2022/05/14 03:07:57;;;;;;;6.83;4.77;;;10.90;99.90;;;;;;5095159;28;20288;-82
2022/05/14 03:10:25;;;;;;;7.87;5.33;;;10.90;99.90;;;;;;5095201;28;20288;-82
2022/05/14 03:12:52;;;;;;;7.60;4.93;;;10.90;99.90;;;;;;5095055;28;20227;-81
2022/05/14 03:15:19;;;;;;;10.03;5.50;;;11.00;99.90;;;;;;5095000;28;20303;-82
2022/05/14 03:17:46;;;;;;;8.80;4.77;;;11.00;99.90;;;;;;5094692;28;20235;-82
2022/05/14 03:20:13;;;;;;;8.20;4.90;;;11.00;99.90;;;;;;5102129;28;20621;-81
2022/05/14 03:22:42;;;;;;;8.20;4.77;;;11.00;99.90;;;;;;5115408;28;20201;-82
2022/05/14 03:25:10;;;;;;;8.87;4.97;;;11.00;99.90;;;;;;5114993;28;20202;-81
2022/05/14 03:27:39;;;;;;;10.23;5.00;;;11.10;99.90;;;;;;5119599;28;20238;-85
2022/05/14 03:30:07;;;;;;;6.17;4.47;;;11.10;99.90;;;;;;5098396;28;20280;-87
2022/05/14 03:32:34;;;;;;;8.90;4.87;;;11.10;99.90;;;;;;5101007;28;20256;-83
2022/05/14 03:35:05;;;;;;;10.77;5.27;;;11.10;99.90;;;;;;5102431;28;20250;-85
2022/05/14 03:37:43;;;;;;;7.27;5.10;;;11.20;99.90;;;;;;5100284;28;20188;-84
2022/05/14 03:40:11;;;;;;;6.03;5.00;;;11.20;99.90;;;;;;5101009;28;20193;-85
2022/05/14 03:42:40;;;;;;;9.03;5.30;;;11.20;99.90;;;;;;5101491;28;20223;-87
2022/05/14 03:45:08;;;;;;;12.17;5.27;;;11.30;99.90;;;;;;5099125;28;20238;-86
2022/05/14 03:47:43;;;;;;;7.90;5.00;;;11.40;99.90;;;;;;5097566;28;20191;-83
2022/05/14 03:50:11;;;;;;;6.70;4.77;;;11.40;99.90;;;;;;5106510;28;20197;-83
2022/05/14 03:52:38;;;;;;;8.27;4.70;;;11.40;99.90;;;;;;5121080;28;20542;-87
2022/05/14 03:55:06;;;;;;;5.93;4.73;;;11.40;99.90;;;;;;5117359;28;20222;-83
2022/05/14 03:57:32;;;;;;;7.77;5.30;;;11.50;99.90;;;;;;5123562;28;20230;-85
2022/05/14 04:00:01;;;;;;;7.57;4.97;;;11.50;99.90;;;;;;5124319;28;20186;-84
2022/05/14 04:02:28;;;;;;;6.63;4.90;;;11.50;99.90;;;;;;5117780;28;20194;-84
2022/05/14 04:05:00;;;;;;;11.30;4.90;;;11.60;99.90;;;;;;5118990;28;20189;-86
2022/05/14 04:07:27;;;;;;;7.90;4.47;;;11.60;99.90;;;;;;5120445;28;20222;-86
2022/05/14 04:09:54;;;;;;;11.07;5.00;;;11.60;99.90;;;;;;5117021;28;20193;-88
2022/05/14 04:12:24;;;;;;;8.33;5.00;;;11.60;99.90;;;;;;5120198;28;20217;-84
2022/05/14 04:14:58;;;;;;;5.70;4.20;;;11.60;99.90;;;;;;5119555;28;20249;-85
2022/05/14 04:17:27;;;;;;;7.53;4.73;;;11.70;99.90;;;;;;5121693;28;20540;-84
2022/05/14 04:19:56;;;;;;;9.37;5.00;;;11.70;99.90;;;;;;5111884;28;20188;-83
2022/05/14 04:22:23;;;;;;;7.63;4.53;;;12.00;99.90;;;;;;5096805;28;20273;-86
2022/05/14 04:24:50;;;;;;;9.20;4.50;;;12.30;1.00;;;;;;5119621;28;20196;-84
2022/05/14 04:27:17;;;;;;;8.50;4.03;;;13.30;1.00;;;;;;5114124;28;20277;-83
2022/05/14 04:29:44;;;;;;;6.13;3.97;;;14.40;1.00;;;;;;5113967;28;20284;-83
2022/05/14 04:32:11;;;;;;;5.63;3.07;;;15.50;99.90;;;;;;5113704;28;20218;-84
2022/05/14 04:34:39;;;;;;;5.10;3.15;;;16.50;24.60;;;;;;5113430;28;20326;-83
2022/05/14 04:37:06;;;;;;;7.45;3.20;;;17.40;1.00;;;;;;5114099;28;20217;-83
2022/05/14 04:39:33;;;;;;;6.65;3.40;;;18.10;1.00;;;;;;5114266;28;20466;-83
2022/05/14 04:42:01;;;;;;;4.82;3.30;;;18.80;99.90;;;;;;5113922;28;20274;-85
2022/05/14 04:44:28;;;;;;;7.15;3.05;;;19.40;99.90;;;;;;5113715;28;20194;-84
2022/05/14 04:46:56;;;;;;;7.25;2.83;;;20.00;64.60;;;;;;5113317;28;20529;-83
2022/05/14 04:49:23;;;;;;;7.32;3.25;;;20.60;1.00;;;;;;5111076;28;20199;-84
2022/05/14 04:51:51;;;;;;;5.43;2.90;;;21.20;1.00;;;;;;5093046;28;20201;-84
2022/05/14 04:54:18;;;;;;;;;;;21.80;1.00;;;;;;5093184;28;20247;-83
2022/05/14 04:56:45;;;;;;;4.60;2.90;;;22.50;1.00;;;;;;5092406;28;20057;-83
2022/05/14 04:59:13;;;;;;;6.07;2.70;;;23.00;1.00;;;;;;5092583;28;20296;-84
2022/05/14 05:03:16;;;;;;;6.30;3.20;;;22.80;1.00;;;;;;5092437;28;20192;-83
2022/05/14 05:04:28;;;;;;;5.72;3.03;;;22.20;1.00;;;;;;5091878;28;20184;-84
2022/05/14 05:06:56;;;;;;;6.07;2.92;;;21.40;1.00;;;;;;5092246;28;20202;-83
2022/05/14 05:09:23;;;;;;;8.82;3.25;;;20.90;1.00;;;;;;5092079;28;20222;-83
2022/05/14 05:11:50;;;;;;;6.07;2.88;;;20.70;1.00;;;;;;5092321;28;20239;-83
2022/05/14 05:14:17;;;;;;;;;;;20.40;1.00;;;;;;5091963;28;20278;-82
2022/05/14 05:16:44;;;;;;;5.35;3.25;;;20.00;1.00;;;;;;5091973;28;20120;-83
2022/05/14 05:19:11;;;;;;;6.50;3.05;;;19.60;1.00;;;;;;5092976;28;20273;-82
2022/05/14 05:21:39;;;;;;;5.65;3.15;;;19.10;1.00;;;;;;5094166;28;20267;-80
2022/05/14 05:24:08;;;;;;;4.95;3.17;;;18.80;1.00;;;;;;5092278;28;20198;-81
2022/05/14 05:26:35;;;;;;;8.68;3.50;;;18.50;1.00;;;;;;5092165;28;20195;-80
2022/05/14 05:29:02;;;;;;;5.32;3.25;;;18.30;1.00;;;;;;5092112;28;20529;-81
2022/05/14 05:31:29;;;;;;;5.35;2.83;;;18.20;1.00;;;;;;5091980;28;20191;-80
2022/05/14 05:33:56;;;;;;;7.43;3.35;;;18.10;1.00;;;;;;5095811;28;20196;-81
2022/05/14 05:36:23;;;;;;;5.38;2.70;;;18.10;1.00;;;;;;5099329;28;20245;-83
2022/05/14 05:38:51;;;;;;;13.23;8.30;;;18.10;1.00;;;;;;5115815;28;20286;-83
2022/05/14 05:41:19;;;;;;;;;;;18.10;1.00;;;;;;5114457;28;20001;-82
2022/05/14 05:43:46;;;;;;;18.05;8.30;;;18.10;1.00;;;;;;5112774;28;20207;-83
2022/05/14 05:46:13;;;;;;;102.10;34.22;;;18.30;1.00;;;;;;5113633;28;20286;-83
2022/05/14 05:48:41;;;;;;;45.15;15.05;;;18.50;1.00;;;;;;5116982;28;20633;-83
2022/05/14 05:51:11;;;;;;;24.35;7.00;;;18.50;1.00;;;;;;5096889;28;20215;-83
2022/05/14 05:59:08;;;;;;;91.47;29.58;;;18.20;1.00;;;;;;5114308;28;20182;-81
2022/05/14 06:01:35;;;;;;;45.25;16.95;;;18.20;1.00;;;;;;5116543;28;20190;-83
2022/05/14 06:04:02;;;;;;;159.45;43.78;;;18.30;1.00;;;;;;5114114;28;20202;-82
2022/05/14 06:06:29;;;;;;;146.70;46.28;;;18.60;1.00;;;;;;5112650;28;20230;-81
2022/05/14 06:08:56;;;;;;;82.22;28.52;;;19.00;1.00;;;;;;5113967;28;20193;-80
2022/05/14 06:11:25;;;;;;;124.53;44.60;;;19.10;1.00;;;;;;5117784;28;20245;-82
2022/05/14 06:13:52;;;;;;;53.72;19.27;;;18.80;1.00;;;;;;5117309;28;20204;-85
2022/05/14 06:16:19;;;;;;;39.65;15.98;;;18.50;1.00;;;;;;5113009;28;20271;-83
2022/05/14 06:18:46;;;;;;;86.03;31.83;;;18.10;1.00;;;;;;5113637;28;20195;-83
2022/05/14 06:21:14;;;;;;;95.78;34.88;;;17.60;1.00;;;;;;5097263;28;20187;-84
2022/05/14 06:23:41;;;;;;;75.50;27.88;;;17.30;1.00;;;;;;5094972;28;20198;-82
2022/05/14 06:26:08;;;;;;;44.13;16.70;;;17.00;1.00;;;;;;5096814;28;20288;-81
2022/05/14 06:28:36;;;;;;;65.43;25.03;;;16.70;1.00;;;;;;5109740;28;20196;-83
2022/05/14 06:31:03;;;;;;;63.33;24.90;;;16.40;1.00;;;;;;5104082;28;20191;-80
2022/05/14 06:33:30;;;;;;;;;;;16.20;1.00;;;;;;5111715;28;20183;-82
2022/05/14 06:35:58;;;;;;;;;;;16.00;1.00;;;;;;5111886;28;20398;-83
2022/05/14 06:38:25;;;;;;;37.47;14.83;;;15.90;1.00;;;;;;5118851;28;20137;-81
2022/05/14 06:40:52;;;;;;;35.90;15.60;;;15.80;1.00;;;;;;5112355;28;20282;-81
2022/05/14 06:43:19;;;;;;;17.70;7.40;;;15.80;1.00;;;;;;5114757;28;20197;-83
2022/05/14 06:45:52;;;;;;;;;;;15.80;1.00;;;;;;5117218;28;19979;-85
2022/05/14 06:48:19;;;;;;;32.27;12.33;;;15.80;1.00;;;;;;5118252;28;20426;-82
2022/05/14 06:50:50;;;;;;;25.37;8.80;;;15.80;1.00;;;;;;5107086;28;20197;-82
2022/05/14 06:53:19;;;;;;;32.03;10.67;;;15.90;1.00;;;;;;5100313;28;20195;-82
2022/05/14 06:55:48;;;;;;;40.17;15.20;;;16.00;1.00;;;;;;5117054;28;20623;-81
2022/05/14 06:58:18;;;;;;;22.03;7.90;;;16.20;1.00;;;;;;5127738;28;20592;-83
2022/05/14 07:00:46;;;;;;;27.97;10.80;;;16.40;1.00;;;;;;5117538;28;20576;-84
2022/05/14 07:08:46;;;;;;;28.15;11.73;;;16.90;1.00;;;;;;5084307;28;20232;-83
2022/05/14 07:11:12;;;;;;;30.40;12.60;;;17.00;1.00;;;;;;5118669;28;20232;-82
2022/05/14 07:13:40;;;;;;;16.33;6.45;;;17.30;1.00;;;;;;5118952;28;20344;-83
2022/05/14 07:16:10;;;;;;;22.73;9.32;;;17.60;1.00;;;;;;5118481;28;20263;-84
2022/05/14 07:18:38;;;;;;;9.90;3.97;;;17.90;1.00;;;;;;5118521;28;20244;-83
2022/05/14 07:21:04;;;;;;;;;;;18.10;1.00;;;;;;5117300;28;20030;-82
2022/05/14 07:23:35;;;;;;;14.25;7.32;;;18.40;1.00;;;;;;5117237;28;20102;-84
2022/05/14 07:26:03;;;;;;;17.10;9.43;;;18.60;1.00;;;;;;5118461;28;20200;-87
2022/05/14 07:28:30;;;;;;;10.32;5.18;;;19.00;1.00;;;;;;5107728;28;20216;-86
2022/05/14 07:30:57;;;;;;;7.40;3.35;;;19.80;1.00;;;;;;5095798;28;20248;-85
2022/05/14 07:33:24;;;;;;;12.57;4.85;;;20.70;1.00;;;;;;5096053;28;20209;-84
2022/05/14 07:36:00;;;;;;;11.13;5.28;;;21.10;1.00;;;;;;5097399;28;20251;-82
2022/05/14 07:38:32;;;;;;;13.60;6.20;;;21.30;1.00;;;;;;5097299;28;20226;-85
2022/05/14 07:40:59;;;;;;;10.15;5.13;;;21.40;1.00;;;;;;5099034;28;20229;-83
2022/05/14 07:43:30;;;;;;;7.55;3.70;;;21.60;1.00;;;;;;5111450;28;20195;-87
2022/05/14 07:46:07;;;;;;;13.73;4.40;;;21.60;1.00;;;;;;5103513;28;20244;-82
2022/05/14 07:48:36;;;;;;;12.23;5.63;;;21.60;1.00;;;;;;5098331;28;20654;-85
2022/05/14 07:51:07;;;;;;;7.63;2.95;;;21.70;1.00;;;;;;5103558;28;20195;-84
2022/05/14 07:53:35;;;;;;;12.57;7.53;;;21.70;1.00;;;;;;5103900;28;20276;-85
2022/05/14 07:56:05;;;;;;;9.45;5.20;;;21.60;1.00;;;;;;5101369;28;20188;-87
2022/05/14 07:58:32;;;;;;;10.18;3.65;;;21.50;1.00;;;;;;5102086;28;20192;-83
2022/05/14 08:01:03;;;;;;;10.48;4.20;;;21.40;1.00;;;;;;5098806;28;20241;-86
2022/05/14 08:03:39;;;;;;;11.60;4.97;;;21.40;1.00;;;;;;5098115;28;20203;-84
2022/05/14 08:06:10;;;;;;;7.63;3.60;;;21.30;1.00;;;;;;5097950;28;20692;-83
2022/05/14 08:08:37;;;;;;;10.32;4.20;;;21.30;1.00;;;;;;5096711;28;20655;-86
2022/05/14 08:11:05;;;;;;;11.70;3.80;;;21.30;1.00;;;;;;5098234;28;20203;-83
2022/05/14 08:13:34;;;;;;;8.43;4.10;;;21.20;1.00;;;;;;5098394;28;20644;-83
2022/05/14 08:16:02;;;;;;;8.70;3.42;;;21.30;1.00;;;;;;5104628;28;20226;-82
2022/05/14 08:18:35;;;;;;;6.18;3.45;;;21.30;1.00;;;;;;5099740;28;20194;-87
2022/05/14 08:26:52;;;;;;;5.57;2.95;;;22.20;1.00;;;;;;5117444;28;20178;-83
2022/05/14 08:29:20;;;;;;;9.43;2.88;;;22.20;1.00;;;;;;5120587;28;20222;-86
2022/05/14 08:31:47;;;;;;;11.63;3.38;;;22.10;1.00;;;;;;5116553;28;20614;-83
2022/05/14 08:34:20;;;;;;;8.70;2.92;;;21.90;1.00;;;;;;5118607;28;20210;-88
2022/05/14 08:36:47;;;;;;;9.95;2.70;;;21.60;1.00;;;;;;5107573;28;20271;-84
2022/05/14 08:39:16;;;;;;;7.35;2.83;;;21.30;1.00;;;;;;5122168;28;20230;-83
2022/05/14 08:41:47;;;;;;;7.20;2.65;;;21.10;1.00;;;;;;5119599;28;20254;-82
2022/05/14 08:44:18;;;;;;;8.60;2.97;;;20.80;1.00;;;;;;5122540;28;20196;-83
2022/05/14 08:46:53;;;;;;;10.10;2.72;;;20.70;1.00;;;;;;5120267;28;20179;-83
2022/05/14 08:49:32;;;;;;;7.90;3.08;;;20.70;1.00;;;;;;5115030;28;20206;-85
2022/05/14 08:52:00;;;;;;;6.35;2.50;;;20.60;1.00;;;;;;5121979;28;20183;-81
2022/05/14 08:54:28;;;;;;;12.98;3.25;;;20.60;1.00;;;;;;5120848;28;20559;-84
2022/05/14 08:57:11;;;;;;;12.25;4.85;;;20.50;1.00;;;;;;5120964;28;20310;-85
2022/05/14 08:59:52;;;;;;;7.95;2.65;;;20.40;1.00;;;;;;5115521;28;20275;-81
2022/05/14 09:02:21;;;;;;;8.93;3.00;;;20.40;1.00;;;;;;5113181;28;20175;-83
2022/05/14 09:04:56;;;;;;;8.80;3.03;;;20.20;1.00;;;;;;5115447;28;20719;-86
2022/05/14 09:07:23;;;;;;;7.65;2.72;;;20.20;1.00;;;;;;5113094;28;20611;-80
2022/05/14 09:09:55;;;;;;;11.45;3.85;;;20.00;1.00;;;;;;5114632;28;20285;-83
2022/05/14 09:12:25;;;;;;;12.25;4.80;;;20.00;1.00;;;;;;5115358;28;20182;-80
2022/05/14 09:14:58;;;;;;;9.55;3.80;;;19.80;1.00;;;;;;5116501;28;20163;-83
2022/05/14 09:17:29;;;;;;;10.02;3.50;;;19.70;1.00;;;;;;5114211;28;20245;-81
2022/05/14 09:19:57;;;;;;;11.02;3.17;;;19.70;1.00;;;;;;5107490;28;20217;-81
2022/05/14 09:22:38;;;;;;;8.38;3.60;;;19.60;1.00;;;;;;5093382;28;20231;-82
2022/05/14 09:25:18;;;;;;;7.47;3.30;;;19.60;1.00;;;;;;5094135;28;20184;-82
2022/05/14 09:27:49;;;;;;;8.48;2.55;;;19.50;1.00;;;;;;5098596;28;20187;-83
2022/05/14 09:30:25;;;;;;;9.63;2.80;;;19.40;1.00;;;;;;5095563;28;20541;-83
2022/05/14 09:32:52;;;;;;;6.82;2.38;;;19.40;1.00;;;;;;5096367;28;20203;-82
2022/05/14 09:35:22;;;;;;;5.97;2.65;;;19.40;1.00;;;;;;5095484;28;20285;-81
2022/05/14 09:37:49;;;;;;;9.05;2.95;;;19.40;1.00;;;;;;5098507;28;20578;-81
2022/05/14 09:40:23;;;;;;;7.63;3.00;;;19.40;1.00;;;;;;5094691;28;20198;-87
2022/05/14 09:42:52;;;;;;;8.20;2.97;;;19.30;1.00;;;;;;5096905;28;20720;-89
2022/05/14 09:45:28;;;;;;;18.15;2.78;;;19.30;1.00;;;;;;5099231;28;20207;-86
2022/05/14 09:47:54;;;;;;;10.25;2.63;;;19.20;1.00;;;;;;5101011;28;20640;-85
2022/05/14 09:50:24;;;;;;;10.80;3.17;;;19.20;1.00;;;;;;5106833;28;20714;-84
2022/05/14 09:52:57;;;;;;;9.32;2.97;;;19.10;1.00;;;;;;5112513;28;20620;-83
2022/05/14 09:56:09;;;;;;;7.90;2.72;;;19.00;1.00;;;;;;5120148;28;20282;-84
2022/05/14 09:58:53;;;;;;;7.38;2.90;;;19.00;1.00;;;;;;5016950;28;20274;-83
2022/05/14 10:01:29;;;;;;;12.18;2.97;;;18.90;1.00;;;;;;5098659;28;20278;-84
2022/05/14 10:04:08;;;;;;;6.22;2.47;;;18.80;1.00;;;;;;5103327;28;20248;-85
2022/05/14 10:06:43;;;;;;;18.38;4.70;;;18.70;1.00;;;;;;5103971;28;20176;-81
2022/05/14 10:09:21;;;;;;;9.80;2.90;;;18.60;1.00;;;;;;5102677;28;20239;-83
2022/05/14 10:11:54;;;;;;;24.35;6.65;;;18.50;1.00;;;;;;5097013;28;20222;-82
2022/05/14 10:14:33;;;;;;;26.77;5.57;;;18.50;1.00;;;;;;5092158;28;20694;-83
2022/05/14 10:17:20;;;;;;;29.52;6.45;;;18.50;1.00;;;;;;5093504;28;20206;-83
2022/05/14 10:20:10;;;;;;;18.52;4.95;;;18.50;1.00;;;;;;5093240;28;20264;-83
2022/05/14 10:28:36;;;;;;;16.80;5.00;;;18.60;1.00;;;;;;5098187;28;20224;-81
2022/05/14 10:31:10;;;;;;;11.82;4.45;;;18.70;1.00;;;;;;5101596;28;20191;-82
2022/05/14 10:33:37;;;;;;;8.25;3.05;;;18.70;1.00;;;;;;5096369;28;20211;-81
2022/05/14 10:36:13;;;;;;;6.65;2.70;;;18.70;1.00;;;;;;5098218;28;20730;-81
2022/05/14 10:38:45;;;;;;;12.45;2.92;;;18.80;1.00;;;;;;5095840;28;20182;-81
2022/05/14 10:41:15;;;;;;;8.32;3.10;;;18.80;1.00;;;;;;5095748;28;20271;-81
2022/05/14 10:43:48;;;;;;;9.90;2.70;;;18.80;1.00;;;;;;5095647;28;20286;-81
2022/05/14 10:46:20;;;;;;;9.77;2.78;;;18.90;1.00;;;;;;5095774;28;20241;-81
2022/05/14 10:48:56;;;;;;;9.95;2.92;;;19.00;1.00;;;;;;5101744;28;20628;-82
2022/05/14 10:51:25;;;;;;;9.65;2.75;;;19.00;1.00;;;;;;5095744;28;20183;-82
2022/05/14 10:53:52;;;;;;;8.43;2.80;;;19.10;1.00;;;;;;5094360;28;20215;-81
2022/05/14 10:56:25;;;;;;;7.88;3.10;;;19.10;1.00;;;;;;5095342;28;20207;-82
2022/05/14 10:59:04;;;;;;;7.53;2.85;;;19.10;1.00;;;;;;5095402;28;20271;-82
2022/05/14 11:01:36;;;;;;;10.40;3.25;;;19.30;1.00;;;;;;5095476;28;20187;-82
2022/05/14 11:04:16;;;;;;;9.13;2.90;;;19.30;1.00;;;;;;5095264;28;20234;-81
2022/05/14 11:06:54;;;;;;;14.02;3.22;;;19.30;1.00;;;;;;5095240;28;20676;-82
2022/05/14 11:09:24;;;;;;;7.78;2.67;;;19.40;1.00;;;;;;5096482;28;20231;-83
2022/05/14 11:11:56;;;;;;;6.72;2.70;;;19.50;1.00;;;;;;5095252;28;20215;-82
2022/05/14 11:14:23;;;;;;;10.32;2.88;;;19.60;1.00;;;;;;5098184;28;20215;-82
2022/05/14 11:16:52;;;;;;;8.32;2.63;;;19.80;1.00;;;;;;5096726;28;20219;-83
2022/05/14 11:19:28;;;;;;;10.85;2.88;;;19.90;1.00;;;;;;5099475;28;20188;-82
2022/05/14 11:21:56;;;;;;;14.23;3.10;;;20.00;1.00;;;;;;5097325;28;20201;-82
2022/05/14 11:24:34;;;;;;;8.25;2.88;;;20.10;1.00;;;;;;5099029;28;20278;-83
2022/05/14 11:27:01;;;;;;;8.23;2.95;;;20.30;1.00;;;;;;5097300;28;20600;-83
2022/05/14 11:29:31;;;;;;;8.88;3.15;;;20.40;1.00;;;;;;5095618;28;20654;-82
2022/05/14 11:32:09;;;;;;;6.82;2.67;;;20.60;1.00;;;;;;5097190;28;20202;-84
2022/05/14 11:34:37;;;;;;;8.73;2.97;;;20.70;1.00;;;;;;5099374;28;20378;-82
2022/05/14 11:37:07;;;;;;;9.63;3.40;;;20.70;1.00;;;;;;5094578;28;20220;-82
2022/05/14 11:39:36;;;;;;;11.77;3.13;;;20.80;1.00;;;;;;5099872;28;20223;-85
2022/05/14 11:42:32;;;;;;;7.50;3.17;;;20.90;1.00;;;;;;5106651;28;20252;-87
2022/05/14 11:45:19;;;;;;;8.55;2.75;;;20.80;1.00;;;;;;5109793;28;20222;-85
2022/05/14 11:48:05;;;;;;;8.88;2.88;;;20.80;1.00;;;;;;5103791;28;20191;-82
2022/05/14 11:50:37;;;;;;;7.75;2.88;;;20.80;1.00;;;;;;5096589;28;20211;-84
2022/05/14 11:53:17;;;;;;;7.65;3.10;;;20.70;1.00;;;;;;5096877;28;20191;-83
2022/05/14 11:55:49;;;;;;;6.38;2.60;;;20.70;1.00;;;;;;5094660;28;20198;-82
2022/05/14 11:58:22;;;;;;;12.30;7.22;;;20.60;1.00;;;;;;5115394;28;20199;-82
2022/05/14 12:01:03;;;;;;;10.27;3.10;;;20.60;1.00;;;;;;5114986;28;20222;-82
2022/05/14 12:03:36;;;;;;;8.90;2.90;;;20.70;1.00;;;;;;5116517;28;20189;-82
2022/05/14 12:06:18;;;;;;;9.80;3.13;;;21.00;1.00;;;;;;5115589;28;20429;-81
2022/05/14 12:09:04;;;;;;;6.75;2.85;;;21.10;1.00;;;;;;5116192;28;20590;-83
2022/05/14 12:11:36;;;;;;;10.25;3.00;;;21.30;1.00;;;;;;5115244;28;20217;-82
2022/05/14 12:14:08;;;;;;;11.70;3.03;;;21.40;1.00;;;;;;5116128;28;20185;-83
2022/05/14 12:16:36;;;;;;;8.38;2.45;;;21.50;1.00;;;;;;5114404;28;20274;-83
2022/05/14 12:19:08;;;;;;;8.75;2.50;;;21.70;1.00;;;;;;5109048;28;20215;-82
2022/05/14 12:21:36;;;;;;;9.48;2.55;;;21.90;1.00;;;;;;5093526;28;20183;-82
2022/05/14 12:24:03;;;;;;;6.65;2.88;;;22.00;1.00;;;;;;5094458;28;20223;-82
2022/05/14 12:26:32;;;;;;;4.72;2.17;;;21.90;1.00;;;;;;5095722;28;20249;-82
2022/05/14 12:29:01;;;;;;;6.75;2.28;;;21.80;1.00;;;;;;5093474;28;20734;-82
2022/05/14 12:34:22;;;;;;;6.47;2.63;;;21.40;1.00;;;;;;5093827;28;20174;-82
2022/05/14 12:36:58;;;;;;;8.98;2.40;;;21.30;1.00;;;;;;5108185;28;20198;-87
2022/05/14 12:39:28;;;;;;;7.63;2.65;;;21.00;1.00;;;;;;5113642;28;20189;-82
2022/05/14 12:41:58;;;;;;;4.45;2.25;;;20.80;1.00;;;;;;5113890;28;20372;-82
2022/05/14 12:44:27;;;;;;;11.02;2.92;;;20.70;1.00;;;;;;5107140;28;20280;-83
2022/05/14 12:46:56;;;;;;;6.75;2.42;;;20.40;1.00;;;;;;5094465;28;20251;-83
2022/05/14 12:49:27;;;;;;;6.90;3.47;;;20.20;1.00;;;;;;5092779;28;20280;-82
2022/05/14 12:51:56;;;;;;;5.45;2.42;;;20.00;1.00;;;;;;5094168;28;20233;-84
2022/05/14 12:54:26;;;;;;;6.65;3.22;;;19.90;1.00;;;;;;5093644;28;20679;-86
2022/05/14 12:56:56;;;;;;;21.17;6.38;;;19.70;1.00;;;;;;5107937;28;20233;-85
2022/05/14 12:59:24;;;;;;;15.80;5.03;;;19.60;1.00;;;;;;5112893;28;20542;-86
2022/05/14 13:01:55;;;;;;;9.93;4.30;;;19.60;1.00;;;;;;5094797;28;20660;-84
2022/05/14 13:04:34;;;;;;;7.55;2.88;;;19.70;1.00;;;;;;5095061;28;20248;-85
2022/05/14 13:07:03;;;;;;;8.50;2.88;;;19.90;1.00;;;;;;5093907;28;20744;-84
2022/05/14 13:09:31;;;;;;;8.93;2.75;;;20.20;1.00;;;;;;5093781;28;20179;-85
2022/05/14 13:11:59;;;;;;;9.50;2.90;;;20.50;1.00;;;;;;5107386;28;20202;-86
2022/05/14 13:14:30;;;;;;;8.50;2.78;;;20.60;1.00;;;;;;5112042;28;20194;-83
2022/05/14 13:16:59;;;;;;;7.15;2.90;;;20.80;1.00;;;;;;5112007;28;20621;-84
2022/05/14 13:19:38;;;;;;;9.27;3.53;;;20.70;1.00;;;;;;5112740;28;20270;-84
2022/05/14 13:22:09;;;;;;;9.10;2.55;;;20.60;1.00;;;;;;5111118;28;20258;-83
2022/05/14 13:24:37;;;;;;;7.20;2.50;;;20.40;1.00;;;;;;5113140;28;20270;-84
2022/05/14 13:27:09;;;;;;;6.90;2.85;;;20.30;1.00;;;;;;5112812;28;20747;-84
2022/05/14 13:29:38;;;;;;;7.05;2.65;;;20.40;1.00;;;;;;5114308;28;20182;-87
2022/05/14 13:32:09;;;;;;;10.23;3.15;;;20.40;1.00;;;;;;5113320;28;20641;-86
2022/05/14 13:37:31;;;;;;;7.60;3.40;;;20.70;1.00;;;;;;5096379;28;20183;-84
2022/05/14 13:40:01;;;;;;;9.02;3.70;;;20.80;1.00;;;;;;5098212;28;20170;-84
2022/05/14 13:42:32;;;;;;;6.38;2.58;;;20.70;1.00;;;;;;5112139;28;20171;-84